Bronson, Texas
Current Conditions -  °F | °C
As of 4:35 AM on Monday 26 Jan 2015 (Local Time) from KJAS Reporting Station
Clear Clear  
Wind Chill: 33°   Ceiling: Unl
Heat Index: 33°   Visibility: 10mi
Dew Point: 32°   Wind: 0mph
Humidity: 94%   Direction: NA
Pressure: 30.18"   Gusts: NA
Location:  31.34°N, 94.01°W
Report Text: KJAS 261035Z AUTO 00000KT 10SM CLR 01/00 A3018 RMK AO2 T00061002
Loading
Personal Weather Stations






























Interactive Weather Map New forecast layout! Learn more

10-Day Weather Forecast

Advertisements
Track Severe Weather on mobile